Terminal Aerodrome Forecast
Issued by NWS

Home | Current Version | Previous Version | Text Only | Print | Product List | Glossary On
Versions: 1 2 3 4 5 6 7 8 9 10 11 12 13 14
000
FTUS46 KSTO 222323
TAFRDD
TAF
KRDD 222323Z 2300/2324 18009KT 6SM HZ SCT150
     FM230100 18009KT 6SM HZ VCSH BKN150
     FM230500 VRB04KT 6SM HZ FEW150
     FM232000 18009KT P6SM SKC=

USA.gov is the U.S. government's official web portal to all federal, state and local government web resources and services.